sensor_id;sensor_type;location;lat;lon;timestamp;pressure;altitude;pressure_sealevel;temperature;humidity
19510;BME280;9896;42.486;26.506;2023-02-03T00:00:39;100019.66;;;3.98;70.94
19510;BME280;9896;42.486;26.506;2023-02-03T00:03:04;100020.63;;;3.97;70.98
19510;BME280;9896;42.486;26.506;2023-02-03T00:05:31;100013.00;;;3.94;70.92
19510;BME280;9896;42.486;26.506;2023-02-03T00:07:58;100007.34;;;3.89;71.76
19510;BME280;9896;42.486;26.506;2023-02-03T00:10:24;100012.28;;;3.84;71.91
19510;BME280;9896;42.486;26.506;2023-02-03T00:12:50;100014.72;;;3.69;73.08
19510;BME280;9896;42.486;26.506;2023-02-03T00:15:20;100011.47;;;3.42;73.72
19510;BME280;9896;42.486;26.506;2023-02-03T00:17:47;100012.53;;;3.31;74.60
19510;BME280;9896;42.486;26.506;2023-02-03T00:20:13;100003.72;;;3.22;75.63
19510;BME280;9896;42.486;26.506;2023-02-03T00:22:39;100005.47;;;3.40;74.96
19510;BME280;9896;42.486;26.506;2023-02-03T00:25:05;100003.56;;;3.50;74.52
19510;BME280;9896;42.486;26.506;2023-02-03T00:27:31;100010.66;;;3.49;74.30
19510;BME280;9896;42.486;26.506;2023-02-03T00:29:57;99996.69;;;3.39;74.26
19510;BME280;9896;42.486;26.506;2023-02-03T00:32:22;100020.06;;;3.44;74.51
19510;BME280;9896;42.486;26.506;2023-02-03T00:34:48;100010.66;;;3.49;73.83
19510;BME280;9896;42.486;26.506;2023-02-03T00:37:14;100011.31;;;3.51;74.01
19510;BME280;9896;42.486;26.506;2023-02-03T00:39:40;100011.13;;;3.45;73.32
19510;BME280;9896;42.486;26.506;2023-02-03T00:42:06;99999.84;;;3.43;73.82
19510;BME280;9896;42.486;26.506;2023-02-03T00:44:31;100014.44;;;3.47;73.50
19510;BME280;9896;42.486;26.506;2023-02-03T00:46:57;100022.94;;;3.50;74.08
19510;BME280;9896;42.486;26.506;2023-02-03T00:49:23;100004.91;;;3.28;74.76
19510;BME280;9896;42.486;26.506;2023-02-03T00:51:49;100016.81;;;3.24;75.82
19510;BME280;9896;42.486;26.506;2023-02-03T00:54:14;100013.66;;;3.20;75.90
19510;BME280;9896;42.486;26.506;2023-02-03T00:56:40;100003.38;;;3.17;75.11
19510;BME280;9896;42.486;26.506;2023-02-03T00:59:05;100003.19;;;3.19;75.21
19510;BME280;9896;42.486;26.506;2023-02-03T01:01:32;100016.91;;;3.14;75.22
19510;BME280;9896;42.486;26.506;2023-02-03T01:03:58;100016.72;;;3.08;75.88
19510;BME280;9896;42.486;26.506;2023-02-03T01:06:24;100022.44;;;2.77;77.79
19510;BME280;9896;42.486;26.506;2023-02-03T01:08:50;100018.78;;;2.35;80.98
19510;BME280;9896;42.486;26.506;2023-02-03T01:11:18;100000.41;;;2.16;81.94
19510;BME280;9896;42.486;26.506;2023-02-03T01:13:45;100001.84;;;2.46;80.23
19510;BME280;9896;42.486;26.506;2023-02-03T01:16:12;100013.91;;;2.84;78.50
19510;BME280;9896;42.486;26.506;2023-02-03T01:18:39;100013.38;;;3.06;77.19
19510;BME280;9896;42.486;26.506;2023-02-03T01:21:07;99997.94;;;2.93;77.10
19510;BME280;9896;42.486;26.506;2023-02-03T01:23:34;100017.50;;;3.00;76.98
19510;BME280;9896;42.486;26.506;2023-02-03T01:26:08;100014.91;;;3.08;77.38
19510;BME280;9896;42.486;26.506;2023-02-03T01:28:35;100018.66;;;3.06;77.29
19510;BME280;9896;42.486;26.506;2023-02-03T01:31:18;100026.16;;;3.10;76.86
19510;BME280;9896;42.486;26.506;2023-02-03T01:33:45;100026.53;;;3.15;76.30
19510;BME280;9896;42.486;26.506;2023-02-03T01:36:16;100020.66;;;3.04;76.58
19510;BME280;9896;42.486;26.506;2023-02-03T01:38:42;100003.94;;;3.29;75.85
19510;BME280;9896;42.486;26.506;2023-02-03T01:41:14;100019.03;;;3.37;75.42
19510;BME280;9896;42.486;26.506;2023-02-03T01:43:43;100019.03;;;3.37;75.86
19510;BME280;9896;42.486;26.506;2023-02-03T01:46:22;100007.47;;;3.38;76.47
19510;BME280;9896;42.486;26.506;2023-02-03T01:48:49;100021.56;;;3.38;75.98
19510;BME280;9896;42.486;26.506;2023-02-03T01:51:16;100025.31;;;3.36;76.12
19510;BME280;9896;42.486;26.506;2023-02-03T01:53:42;100032.34;;;3.45;76.10
19510;BME280;9896;42.486;26.506;2023-02-03T01:56:09;100030.13;;;3.32;76.83
19510;BME280;9896;42.486;26.506;2023-02-03T01:58:37;100025.38;;;3.44;76.16
19510;BME280;9896;42.486;26.506;2023-02-03T02:01:04;100038.00;;;3.24;77.45
19510;BME280;9896;42.486;26.506;2023-02-03T02:03:43;100036.28;;;3.15;77.97
19510;BME280;9896;42.486;26.506;2023-02-03T02:06:12;100042.69;;;3.04;79.43
19510;BME280;9896;42.486;26.506;2023-02-03T02:08:41;100042.78;;;2.95;79.74
19510;BME280;9896;42.486;26.506;2023-02-03T02:11:08;100029.03;;;2.73;81.22
19510;BME280;9896;42.486;26.506;2023-02-03T02:13:35;100034.50;;;2.54;81.80
19510;BME280;9896;42.486;26.506;2023-02-03T02:41:15;100035.63;;;3.13;78.39
19510;BME280;9896;42.486;26.506;2023-02-03T02:43:48;100032.84;;;3.22;78.88
19510;BME280;9896;42.486;26.506;2023-02-03T02:46:23;100032.41;;;3.27;78.14
19510;BME280;9896;42.486;26.506;2023-02-03T02:49:03;100037.09;;;3.33;77.19
19510;BME280;9896;42.486;26.506;2023-02-03T02:51:30;100030.44;;;3.29;77.28
19510;BME280;9896;42.486;26.506;2023-02-03T02:54:00;100034.44;;;3.33;77.69
19510;BME280;9896;42.486;26.506;2023-02-03T02:56:29;100037.56;;;3.28;77.66
19510;BME280;9896;42.486;26.506;2023-02-03T02:58:58;100008.72;;;3.25;77.98
19510;BME280;9896;42.486;26.506;2023-02-03T03:01:26;100021.19;;;3.33;78.80
19510;BME280;9896;42.486;26.506;2023-02-03T03:03:51;100033.75;;;3.31;78.59
19510;BME280;9896;42.486;26.506;2023-02-03T03:06:31;100034.81;;;3.38;78.60
19510;BME280;9896;42.486;26.506;2023-02-03T03:09:04;100031.97;;;3.40;78.10
19510;BME280;9896;42.486;26.506;2023-02-03T03:11:33;100021.78;;;3.27;78.27
19510;BME280;9896;42.486;26.506;2023-02-03T03:14:02;100041.59;;;3.41;78.56
19510;BME280;9896;42.486;26.506;2023-02-03T03:16:31;100044.44;;;3.47;78.55
19510;BME280;9896;42.486;26.506;2023-02-03T03:19:02;100049.28;;;3.52;77.53
19510;BME280;9896;42.486;26.506;2023-02-03T03:21:51;100057.72;;;3.55;77.09
19510;BME280;9896;42.486;26.506;2023-02-03T03:24:23;100057.41;;;3.50;77.90
19510;BME280;9896;42.486;26.506;2023-02-03T03:29:53;100057.44;;;3.58;77.06
19510;BME280;9896;42.486;26.506;2023-02-03T03:32:21;100066.00;;;3.52;77.67
19510;BME280;9896;42.486;26.506;2023-02-03T03:34:47;100059.41;;;3.56;76.94
19510;BME280;9896;42.486;26.506;2023-02-03T03:37:23;100064.19;;;3.53;78.36
19510;BME280;9896;42.486;26.506;2023-02-03T03:39:55;100071.06;;;3.38;79.41
19510;BME280;9896;42.486;26.506;2023-02-03T03:42:37;100071.44;;;3.17;79.85
19510;BME280;9896;42.486;26.506;2023-02-03T03:45:10;100060.56;;;3.28;80.29
19510;BME280;9896;42.486;26.506;2023-02-03T03:48:15;100071.59;;;3.41;79.38
19510;BME280;9896;42.486;26.506;2023-02-03T03:50:56;100074.47;;;3.56;77.99
19510;BME280;9896;42.486;26.506;2023-02-03T03:53:22;100077.78;;;3.50;78.88
19510;BME280;9896;42.486;26.506;2023-02-03T03:55:51;100082.84;;;3.43;78.99
19510;BME280;9896;42.486;26.506;2023-02-03T03:58:24;100083.69;;;3.44;79.01
19510;BME280;9896;42.486;26.506;2023-02-03T04:00:53;100072.94;;;3.79;76.87
19510;BME280;9896;42.486;26.506;2023-02-03T04:03:23;100070.13;;;3.81;77.20
19510;BME280;9896;42.486;26.506;2023-02-03T04:05:50;100038.44;;;3.79;77.07
19510;BME280;9896;42.486;26.506;2023-02-03T04:08:15;100053.28;;;3.90;76.49
19510;BME280;9896;42.486;26.506;2023-02-03T04:10:42;100072.47;;;3.84;77.75
19510;BME280;9896;42.486;26.506;2023-02-03T04:13:09;100063.47;;;3.77;78.14
19510;BME280;9896;42.486;26.506;2023-02-03T04:15:35;100061.47;;;3.70;78.25
19510;BME280;9896;42.486;26.506;2023-02-03T04:18:01;100065.94;;;3.70;78.04
19510;BME280;9896;42.486;26.506;2023-02-03T04:20:28;100073.56;;;3.73;78.07
19510;BME280;9896;42.486;26.506;2023-02-03T04:22:54;100076.09;;;3.74;77.62
19510;BME280;9896;42.486;26.506;2023-02-03T04:25:20;100081.16;;;3.68;78.98
19510;BME280;9896;42.486;26.506;2023-02-03T04:27:45;100084.75;;;3.85;77.51
19510;BME280;9896;42.486;26.506;2023-02-03T04:30:12;100090.38;;;3.82;77.65
19510;BME280;9896;42.486;26.506;2023-02-03T04:32:38;100081.72;;;3.80;77.36
19510;BME280;9896;42.486;26.506;2023-02-03T04:35:04;100100.25;;;3.71;78.39
19510;BME280;9896;42.486;26.506;2023-02-03T04:37:30;100108.56;;;3.77;77.57
19510;BME280;9896;42.486;26.506;2023-02-03T04:39:56;100099.25;;;3.72;77.58
19510;BME280;9896;42.486;26.506;2023-02-03T04:42:23;100123.59;;;2.99;80.83
19510;BME280;9896;42.486;26.506;2023-02-03T04:44:48;100122.06;;;2.43;84.53
19510;BME280;9896;42.486;26.506;2023-02-03T04:47:15;100123.66;;;2.36;86.44
19510;BME280;9896;42.486;26.506;2023-02-03T04:49:40;100133.66;;;2.32;86.62
19510;BME280;9896;42.486;26.506;2023-02-03T04:52:06;100134.97;;;1.92;89.14
19510;BME280;9896;42.486;26.506;2023-02-03T04:54:32;100133.47;;;1.89;89.78
19510;BME280;9896;42.486;26.506;2023-02-03T04:56:58;100139.91;;;1.77;90.58
19510;BME280;9896;42.486;26.506;2023-02-03T04:59:24;100146.00;;;1.87;90.89
19510;BME280;9896;42.486;26.506;2023-02-03T05:01:49;100162.00;;;1.85;91.13
19510;BME280;9896;42.486;26.506;2023-02-03T05:04:15;100159.66;;;1.82;90.80
19510;BME280;9896;42.486;26.506;2023-02-03T05:06:41;100171.88;;;1.83;91.54
19510;BME280;9896;42.486;26.506;2023-02-03T05:09:06;100165.22;;;1.79;91.05
19510;BME280;9896;42.486;26.506;2023-02-03T05:11:32;100188.22;;;2.16;89.54
19510;BME280;9896;42.486;26.506;2023-02-03T05:13:58;100171.31;;;2.26;88.45
19510;BME280;9896;42.486;26.506;2023-02-03T05:16:23;100183.91;;;2.05;89.70
19510;BME280;9896;42.486;26.506;2023-02-03T05:18:49;100190.78;;;1.88;91.03
19510;BME280;9896;42.486;26.506;2023-02-03T05:21:15;100196.50;;;1.84;91.52
19510;BME280;9896;42.486;26.506;2023-02-03T05:23:41;100204.19;;;1.87;90.97
19510;BME280;9896;42.486;26.506;2023-02-03T05:26:07;100202.72;;;2.02;89.93
19510;BME280;9896;42.486;26.506;2023-02-03T05:28:32;100204.09;;;2.06;90.00
19510;BME280;9896;42.486;26.506;2023-02-03T05:30:59;100214.78;;;2.24;88.98
19510;BME280;9896;42.486;26.506;2023-02-03T05:33:26;100209.72;;;2.30;88.34
19510;BME280;9896;42.486;26.506;2023-02-03T05:35:51;100210.38;;;2.32;88.59
19510;BME280;9896;42.486;26.506;2023-02-03T05:38:17;100198.72;;;2.25;88.08
19510;BME280;9896;42.486;26.506;2023-02-03T05:40:43;100209.38;;;2.43;87.83
19510;BME280;9896;42.486;26.506;2023-02-03T05:43:27;100204.41;;;2.58;86.75
19510;BME280;9896;42.486;26.506;2023-02-03T05:45:53;100201.53;;;2.51;87.05
19510;BME280;9896;42.486;26.506;2023-02-03T05:48:19;100208.69;;;2.68;85.94
19510;BME280;9896;42.486;26.506;2023-02-03T05:50:44;100205.38;;;3.02;84.45
19510;BME280;9896;42.486;26.506;2023-02-03T05:53:10;100204.03;;;3.15;83.87
19510;BME280;9896;42.486;26.506;2023-02-03T05:55:36;100176.94;;;3.04;83.51
19510;BME280;9896;42.486;26.506;2023-02-03T05:58:03;100205.16;;;3.31;83.20
19510;BME280;9896;42.486;26.506;2023-02-03T06:00:28;100187.69;;;3.38;83.10
19510;BME280;9896;42.486;26.506;2023-02-03T06:02:57;100195.00;;;3.44;83.04
19510;BME280;9896;42.486;26.506;2023-02-03T06:05:24;100201.06;;;3.54;82.51
19510;BME280;9896;42.486;26.506;2023-02-03T06:07:50;100189.50;;;3.63;81.91
19510;BME280;9896;42.486;26.506;2023-02-03T06:10:16;100202.16;;;3.69;81.93
19510;BME280;9896;42.486;26.506;2023-02-03T06:12:42;100203.97;;;3.68;83.06
19510;BME280;9896;42.486;26.506;2023-02-03T06:15:08;100210.19;;;3.77;83.05
19510;BME280;9896;42.486;26.506;2023-02-03T06:17:34;100205.38;;;3.81;83.40
19510;BME280;9896;42.486;26.506;2023-02-03T06:20:07;100200.84;;;3.91;82.74
19510;BME280;9896;42.486;26.506;2023-02-03T06:22:34;100205.22;;;4.08;81.21
19510;BME280;9896;42.486;26.506;2023-02-03T06:25:00;100201.66;;;4.25;80.46
19510;BME280;9896;42.486;26.506;2023-02-03T06:27:26;100204.88;;;4.37;80.16
19510;BME280;9896;42.486;26.506;2023-02-03T06:29:51;100201.56;;;4.35;80.32
19510;BME280;9896;42.486;26.506;2023-02-03T06:32:17;100208.56;;;4.44;79.97
19510;BME280;9896;42.486;26.506;2023-02-03T06:34:42;100220.03;;;4.52;79.49
19510;BME280;9896;42.486;26.506;2023-02-03T06:37:08;100229.38;;;4.56;79.63
19510;BME280;9896;42.486;26.506;2023-02-03T06:39:34;100236.34;;;4.65;79.46
19510;BME280;9896;42.486;26.506;2023-02-03T06:42:00;100242.00;;;4.62;79.82
19510;BME280;9896;42.486;26.506;2023-02-03T06:44:26;100229.56;;;4.63;80.30
19510;BME280;9896;42.486;26.506;2023-02-03T06:46:52;100234.53;;;4.66;80.34
19510;BME280;9896;42.486;26.506;2023-02-03T06:49:17;100249.16;;;4.70;80.32
19510;BME280;9896;42.486;26.506;2023-02-03T06:51:44;100234.22;;;4.69;80.16
19510;BME280;9896;42.486;26.506;2023-02-03T06:54:11;100235.41;;;4.75;79.59
19510;BME280;9896;42.486;26.506;2023-02-03T06:56:36;100237.03;;;4.67;79.21
19510;BME280;9896;42.486;26.506;2023-02-03T06:59:02;100250.19;;;4.77;79.82
19510;BME280;9896;42.486;26.506;2023-02-03T07:01:28;100246.53;;;4.78;79.37
19510;BME280;9896;42.486;26.506;2023-02-03T07:03:54;100257.16;;;4.78;79.74
19510;BME280;9896;42.486;26.506;2023-02-03T07:06:25;100261.53;;;4.87;78.84
19510;BME280;9896;42.486;26.506;2023-02-03T07:08:57;100268.50;;;4.88;79.56
19510;BME280;9896;42.486;26.506;2023-02-03T07:11:23;100267.50;;;4.89;79.24
19510;BME280;9896;42.486;26.506;2023-02-03T07:13:49;100269.03;;;5.00;79.28
19510;BME280;9896;42.486;26.506;2023-02-03T07:16:15;100268.72;;;5.03;79.05
19510;BME280;9896;42.486;26.506;2023-02-03T07:18:40;100274.34;;;5.00;79.58
19510;BME280;9896;42.486;26.506;2023-02-03T07:21:06;100280.00;;;4.97;80.21
19510;BME280;9896;42.486;26.506;2023-02-03T07:23:32;100276.50;;;4.96;79.73
19510;BME280;9896;42.486;26.506;2023-02-03T07:25:59;100273.84;;;4.96;79.83
19510;BME280;9896;42.486;26.506;2023-02-03T07:28:25;100281.47;;;4.91;80.41
19510;BME280;9896;42.486;26.506;2023-02-03T07:30:50;100288.13;;;5.03;79.61
19510;BME280;9896;42.486;26.506;2023-02-03T07:33:16;100281.84;;;5.04;79.32
19510;BME280;9896;42.486;26.506;2023-02-03T07:35:41;100276.69;;;5.03;79.21
19510;BME280;9896;42.486;26.506;2023-02-03T07:38:07;100280.38;;;5.18;78.37
19510;BME280;9896;42.486;26.506;2023-02-03T07:40:32;100288.03;;;5.21;78.14
19510;BME280;9896;42.486;26.506;2023-02-03T07:42:58;100279.06;;;5.38;77.85
19510;BME280;9896;42.486;26.506;2023-02-03T07:45:24;100297.22;;;5.67;76.45
19510;BME280;9896;42.486;26.506;2023-02-03T07:47:50;100295.59;;;5.66;75.63
19510;BME280;9896;42.486;26.506;2023-02-03T07:50:15;100289.44;;;5.66;75.67
19510;BME280;9896;42.486;26.506;2023-02-03T07:52:41;100294.75;;;5.66;75.78
19510;BME280;9896;42.486;26.506;2023-02-03T07:55:06;100289.59;;;5.72;75.37
19510;BME280;9896;42.486;26.506;2023-02-03T07:57:32;100293.59;;;5.68;75.67
19510;BME280;9896;42.486;26.506;2023-02-03T07:59:58;100298.34;;;5.32;76.78
19510;BME280;9896;42.486;26.506;2023-02-03T08:02:23;100310.84;;;5.40;76.60
19510;BME280;9896;42.486;26.506;2023-02-03T08:04:49;100288.81;;;5.13;77.66
19510;BME280;9896;42.486;26.506;2023-02-03T08:07:15;100305.16;;;5.27;77.57
19510;BME280;9896;42.486;26.506;2023-02-03T08:09:40;100305.09;;;5.10;78.68
19510;BME280;9896;42.486;26.506;2023-02-03T08:12:06;100313.75;;;5.12;79.66
19510;BME280;9896;42.486;26.506;2023-02-03T08:14:31;100311.13;;;5.21;79.42
19510;BME280;9896;42.486;26.506;2023-02-03T08:16:57;100302.66;;;5.25;78.03
19510;BME280;9896;42.486;26.506;2023-02-03T08:19:22;100305.53;;;5.48;77.95
19510;BME280;9896;42.486;26.506;2023-02-03T08:21:48;100311.34;;;5.51;78.88
19510;BME280;9896;42.486;26.506;2023-02-03T08:24:13;100309.69;;;5.50;78.63
19510;BME280;9896;42.486;26.506;2023-02-03T08:26:39;100317.16;;;5.55;78.47
19510;BME280;9896;42.486;26.506;2023-02-03T08:29:04;100315.69;;;5.60;78.62
19510;BME280;9896;42.486;26.506;2023-02-03T08:31:30;100313.69;;;5.71;76.22
19510;BME280;9896;42.486;26.506;2023-02-03T08:33:55;100317.53;;;5.76;75.98
19510;BME280;9896;42.486;26.506;2023-02-03T08:36:21;100313.91;;;6.01;74.74
19510;BME280;9896;42.486;26.506;2023-02-03T08:38:47;100318.88;;;6.29;72.83
19510;BME280;9896;42.486;26.506;2023-02-03T08:41:16;100322.25;;;6.06;73.09
19510;BME280;9896;42.486;26.506;2023-02-03T08:43:43;100322.84;;;5.84;73.42
19510;BME280;9896;42.486;26.506;2023-02-03T08:46:10;100323.53;;;5.78;73.42
19510;BME280;9896;42.486;26.506;2023-02-03T08:48:36;100322.03;;;5.76;73.65
19510;BME280;9896;42.486;26.506;2023-02-03T08:51:02;100317.16;;;5.55;73.84
19510;BME280;9896;42.486;26.506;2023-02-03T08:53:33;100338.94;;;5.50;74.23
19510;BME280;9896;42.486;26.506;2023-02-03T08:56:03;100334.94;;;5.54;74.56
19510;BME280;9896;42.486;26.506;2023-02-03T08:58:29;100350.91;;;5.54;74.00
19510;BME280;9896;42.486;26.506;2023-02-03T09:00:54;100352.59;;;5.55;74.66
19510;BME280;9896;42.486;26.506;2023-02-03T09:03:20;100343.75;;;5.55;74.07
19510;BME280;9896;42.486;26.506;2023-02-03T09:05:46;100352.09;;;5.60;74.45
19510;BME280;9896;42.486;26.506;2023-02-03T09:08:11;100346.28;;;5.65;74.20
19510;BME280;9896;42.486;26.506;2023-02-03T09:10:37;100335.66;;;5.65;73.75
19510;BME280;9896;42.486;26.506;2023-02-03T09:13:02;100349.94;;;5.63;74.31
19510;BME280;9896;42.486;26.506;2023-02-03T09:15:28;100337.94;;;5.51;74.48
19510;BME280;9896;42.486;26.506;2023-02-03T09:17:54;100335.81;;;5.63;72.56
19510;BME280;9896;42.486;26.506;2023-02-03T09:20:21;100342.97;;;5.79;72.50
19510;BME280;9896;42.486;26.506;2023-02-03T09:22:48;100350.19;;;5.86;72.35
19510;BME280;9896;42.486;26.506;2023-02-03T09:25:14;100341.13;;;5.79;72.47
19510;BME280;9896;42.486;26.506;2023-02-03T09:27:40;100338.47;;;5.79;72.19
19510;BME280;9896;42.486;26.506;2023-02-03T09:30:06;100349.94;;;5.72;72.15
19510;BME280;9896;42.486;26.506;2023-02-03T09:32:32;100329.50;;;5.72;71.05
19510;BME280;9896;42.486;26.506;2023-02-03T09:34:58;100325.00;;;5.56;70.92
19510;BME280;9896;42.486;26.506;2023-02-03T09:37:23;100332.31;;;5.71;71.05
19510;BME280;9896;42.486;26.506;2023-02-03T09:39:49;100341.19;;;5.87;70.85
19510;BME280;9896;42.486;26.506;2023-02-03T09:44:52;100327.34;;;5.76;71.84
19510;BME280;9896;42.486;26.506;2023-02-03T09:47:26;100329.66;;;5.79;71.40
19510;BME280;9896;42.486;26.506;2023-02-03T09:50:00;100316.69;;;5.76;71.25
19510;BME280;9896;42.486;26.506;2023-02-03T09:52:32;100338.66;;;5.70;71.11
19510;BME280;9896;42.486;26.506;2023-02-03T09:58:07;100329.22;;;5.91;70.56
19510;BME280;9896;42.486;26.506;2023-02-03T10:00:43;100311.88;;;5.71;68.67
19510;BME280;9896;42.486;26.506;2023-02-03T10:17:13;100315.56;;;5.78;65.58
19510;BME280;9896;42.486;26.506;2023-02-03T10:19:55;100327.19;;;5.77;65.82
19510;BME280;9896;42.486;26.506;2023-02-03T10:22:25;100313.06;;;5.85;66.45
19510;BME280;9896;42.486;26.506;2023-02-03T10:24:59;100324.06;;;5.98;65.07
19510;BME280;9896;42.486;26.506;2023-02-03T10:27:26;100286.63;;;6.07;63.78
19510;BME280;9896;42.486;26.506;2023-02-03T10:30:16;100295.22;;;6.42;63.62
19510;BME280;9896;42.486;26.506;2023-02-03T10:32:43;100303.50;;;6.63;62.88
19510;BME280;9896;42.486;26.506;2023-02-03T10:35:12;100294.28;;;6.74;61.88
19510;BME280;9896;42.486;26.506;2023-02-03T10:37:43;100302.94;;;6.84;62.56
19510;BME280;9896;42.486;26.506;2023-02-03T10:40:13;100302.78;;;6.77;62.95
19510;BME280;9896;42.486;26.506;2023-02-03T10:42:45;100305.13;;;6.80;61.92
19510;BME280;9896;42.486;26.506;2023-02-03T10:45:43;100307.13;;;7.17;60.47
19510;BME280;9896;42.486;26.506;2023-02-03T10:48:15;100300.88;;;6.94;61.13
19510;BME280;9896;42.486;26.506;2023-02-03T10:50:46;100315.53;;;6.98;59.95
19510;BME280;9896;42.486;26.506;2023-02-03T10:53:21;100303.84;;;6.99;60.65
19510;BME280;9896;42.486;26.506;2023-02-03T10:55:59;100310.59;;;7.18;60.32
19510;BME280;9896;42.486;26.506;2023-02-03T10:58:28;100302.34;;;7.35;59.04
19510;BME280;9896;42.486;26.506;2023-02-03T11:01:15;100297.72;;;7.98;57.22
19510;BME280;9896;42.486;26.506;2023-02-03T11:03:43;100290.41;;;7.91;56.72
19510;BME280;9896;42.486;26.506;2023-02-03T11:08:45;100291.16;;;7.85;54.46
19510;BME280;9896;42.486;26.506;2023-02-03T11:11:18;100292.69;;;8.03;54.98
19510;BME280;9896;42.486;26.506;2023-02-03T11:13:45;100276.56;;;7.73;55.31
19510;BME280;9896;42.486;26.506;2023-02-03T11:16:17;100280.72;;;7.76;56.85
19510;BME280;9896;42.486;26.506;2023-02-03T11:19:04;100281.56;;;7.54;55.93
19510;BME280;9896;42.486;26.506;2023-02-03T11:27:00;100257.59;;;7.45;56.15
19510;BME280;9896;42.486;26.506;2023-02-03T11:29:46;100264.94;;;7.43;55.72
19510;BME280;9896;42.486;26.506;2023-02-03T11:32:20;100270.44;;;7.19;56.98
19510;BME280;9896;42.486;26.506;2023-02-03T11:34:55;100269.94;;;7.16;56.53
19510;BME280;9896;42.486;26.506;2023-02-03T11:37:32;100266.13;;;7.10;55.95
19510;BME280;9896;42.486;26.506;2023-02-03T11:42:40;100271.16;;;7.13;57.26
19510;BME280;9896;42.486;26.506;2023-02-03T11:45:28;100263.47;;;7.10;55.97
19510;BME280;9896;42.486;26.506;2023-02-03T11:48:12;100272.88;;;6.98;55.99
19510;BME280;9896;42.486;26.506;2023-02-03T12:08:16;100259.03;;;7.03;55.26
19510;BME280;9896;42.486;26.506;2023-02-03T12:16:08;100248.09;;;7.43;55.17
19510;BME280;9896;42.486;26.506;2023-02-03T12:18:44;100248.25;;;7.87;52.98
19510;BME280;9896;42.486;26.506;2023-02-03T12:21:34;100247.91;;;7.90;51.69
19510;BME280;9896;42.486;26.506;2023-02-03T12:29:44;100240.13;;;8.18;50.28
19510;BME280;9896;42.486;26.506;2023-02-03T12:34:54;100240.44;;;8.00;48.54
19510;BME280;9896;42.486;26.506;2023-02-03T12:37:28;100231.34;;;8.24;48.18
19510;BME280;9896;42.486;26.506;2023-02-03T12:42:59;100227.53;;;8.41;47.59
19510;BME280;9896;42.486;26.506;2023-02-03T12:45:30;100232.25;;;8.39;48.06
19510;BME280;9896;42.486;26.506;2023-02-03T12:48:19;100213.06;;;8.35;48.13
19510;BME280;9896;42.486;26.506;2023-02-03T12:50:54;100232.59;;;8.36;47.93
19510;BME280;9896;42.486;26.506;2023-02-03T12:53:30;100231.94;;;8.78;47.14
19510;BME280;9896;42.486;26.506;2023-02-03T12:56:28;100219.44;;;9.00;46.58
19510;BME280;9896;42.486;26.506;2023-02-03T12:59:10;100233.88;;;8.40;48.01
19510;BME280;9896;42.486;26.506;2023-02-03T13:01:46;100228.53;;;8.40;47.91
19510;BME280;9896;42.486;26.506;2023-02-03T13:04:33;100237.69;;;8.08;49.19
19510;BME280;9896;42.486;26.506;2023-02-03T13:07:11;100226.72;;;8.55;48.78
19510;BME280;9896;42.486;26.506;2023-02-03T13:09:47;100211.41;;;8.64;48.22
19510;BME280;9896;42.486;26.506;2023-02-03T13:12:38;100209.81;;;8.69;48.55
19510;BME280;9896;42.486;26.506;2023-02-03T13:18:12;100213.63;;;8.46;48.97
19510;BME280;9896;42.486;26.506;2023-02-03T13:20:40;100200.19;;;8.39;48.60
19510;BME280;9896;42.486;26.506;2023-02-03T13:23:10;100212.63;;;8.47;48.70
19510;BME280;9896;42.486;26.506;2023-02-03T13:28:40;100221.63;;;8.75;47.91
19510;BME280;9896;42.486;26.506;2023-02-03T13:31:20;100209.22;;;8.38;48.23
19510;BME280;9896;42.486;26.506;2023-02-03T13:34:04;100233.28;;;8.01;48.65
19510;BME280;9896;42.486;26.506;2023-02-03T13:42:27;100220.94;;;7.39;48.91
19510;BME280;9896;42.486;26.506;2023-02-03T13:45:06;100219.34;;;7.30;49.54
19510;BME280;9896;42.486;26.506;2023-02-03T13:47:33;100218.44;;;7.15;49.45
19510;BME280;9896;42.486;26.506;2023-02-03T13:50:14;100221.63;;;7.11;49.25
19510;BME280;9896;42.486;26.506;2023-02-03T13:52:45;100220.72;;;7.49;48.07
19510;BME280;9896;42.486;26.506;2023-02-03T13:55:42;100217.88;;;7.88;47.22
19510;BME280;9896;42.486;26.506;2023-02-03T13:58:26;100196.19;;;8.20;46.03
19510;BME280;9896;42.486;26.506;2023-02-03T14:05:46;100202.59;;;7.97;45.55
19510;BME280;9896;42.486;26.506;2023-02-03T14:16:33;100206.13;;;8.26;45.87
19510;BME280;9896;42.486;26.506;2023-02-03T14:18:59;100210.38;;;8.21;45.75
19510;BME280;9896;42.486;26.506;2023-02-03T14:21:28;100206.91;;;8.35;45.64
19510;BME280;9896;42.486;26.506;2023-02-03T14:24:09;100215.31;;;8.24;46.36
19510;BME280;9896;42.486;26.506;2023-02-03T14:26:39;100192.75;;;7.97;47.44
19510;BME280;9896;42.486;26.506;2023-02-03T14:29:09;100205.41;;;8.18;48.82
19510;BME280;9896;42.486;26.506;2023-02-03T14:31:58;100216.41;;;7.85;50.29
19510;BME280;9896;42.486;26.506;2023-02-03T14:34:35;100215.47;;;7.56;51.34
19510;BME280;9896;42.486;26.506;2023-02-03T14:37:24;100218.31;;;7.54;52.35
19510;BME280;9896;42.486;26.506;2023-02-03T14:40:22;100216.22;;;7.50;53.18
19510;BME280;9896;42.486;26.506;2023-02-03T14:48:05;100212.06;;;7.84;53.59
19510;BME280;9896;42.486;26.506;2023-02-03T14:58:56;100220.66;;;7.57;56.22
19510;BME280;9896;42.486;26.506;2023-02-03T15:06:43;100238.41;;;6.58;60.73
19510;BME280;9896;42.486;26.506;2023-02-03T15:09:23;100228.56;;;6.58;61.62
19510;BME280;9896;42.486;26.506;2023-02-03T15:11:50;100233.09;;;6.49;62.00
19510;BME280;9896;42.486;26.506;2023-02-03T15:16:53;100229.00;;;6.39;62.67
19510;BME280;9896;42.486;26.506;2023-02-03T15:19:23;100220.59;;;6.11;62.91
19510;BME280;9896;42.486;26.506;2023-02-03T15:21:49;100240.38;;;6.00;63.68
19510;BME280;9896;42.486;26.506;2023-02-03T15:24:17;100229.56;;;5.86;65.90
19510;BME280;9896;42.486;26.506;2023-02-03T15:26:48;100225.09;;;5.70;68.33
19510;BME280;9896;42.486;26.506;2023-02-03T15:29:32;100208.47;;;5.44;69.80
19510;BME280;9896;42.486;26.506;2023-02-03T15:32:06;100228.41;;;5.40;71.15